Time;durP1;ratioP1;P1;durP2;ratioP2;P2;SDS_P1;SDS_P2;PMS_P1;PMS_P2;Temp;Humidity;BMP_temperature;BMP_pressure;BME280_temperature;BME280_humidity;BME280_pressure;Samples;Min_cycle;Max_cycle;Signal;HPM_P1;HPM_P2
2022/06/25 00:01:37;;;;;;;11.60;5.78;;;;;;;16.44;92.48;100720.25;5094449;28;20455;-50
2022/06/25 00:04:02;;;;;;;11.00;5.68;;;;;;;16.42;91.95;100729.81;5094156;28;20024;-49
2022/06/25 00:06:28;;;;;;;12.25;5.50;;;;;;;16.40;91.72;100726.31;5094514;28;20055;-51
2022/06/25 00:08:54;;;;;;;7.55;5.40;;;;;;;16.41;91.91;100729.78;5094352;28;20032;-52
2022/06/25 00:14:07;;;;;;;7.75;5.13;;;;;;;16.43;91.18;100734.13;5094519;28;20035;-50
2022/06/25 00:16:34;;;;;;;7.53;5.00;;;;;;;16.42;91.12;100737.63;5093614;28;20028;-51
2022/06/25 00:18:59;;;;;;;10.40;5.43;;;;;;;16.42;91.52;100731.53;5094124;28;20453;-49
2022/06/25 00:21:24;;;;;;;7.15;4.85;;;;;;;16.42;90.90;100741.94;5094352;28;20476;-52
2022/06/25 00:23:50;;;;;;;14.75;4.97;;;;;;;16.40;90.74;100739.31;5093432;28;20417;-53
2022/06/25 00:26:15;;;;;;;10.10;5.10;;;;;;;16.39;91.56;100732.38;5093908;28;20118;-50
2022/06/25 00:28:40;;;;;;;10.38;5.63;;;;;;;16.39;90.52;100731.53;5094140;28;20028;-49
2022/06/25 00:31:05;;;;;;;9.57;5.50;;;;;;;16.40;90.73;100734.13;5092524;28;20024;-53
2022/06/25 00:33:31;;;;;;;11.13;5.40;;;;;;;16.39;90.61;100731.53;5094076;28;20459;-50
2022/06/25 00:35:56;;;;;;;11.88;5.50;;;;;;;16.41;91.03;100734.97;5093878;28;20020;-51
2022/06/25 00:38:21;;;;;;;14.00;6.72;;;;;;;16.40;90.42;100733.28;5093153;28;20533;-51
2022/06/25 00:40:46;;;;;;;9.57;4.90;;;;;;;16.38;90.65;100741.03;5093964;28;20059;-50
2022/06/25 00:43:12;;;;;;;13.15;5.47;;;;;;;16.35;90.72;100741.03;5093241;28;20425;-51
2022/06/25 00:45:37;;;;;;;13.00;5.50;;;;;;;16.32;91.02;100740.16;5093374;28;20024;-50
2022/06/25 00:48:02;;;;;;;9.70;5.82;;;;;;;16.30;90.90;100737.56;5093876;28;20030;-50
2022/06/25 00:50:28;;;;;;;12.02;5.78;;;;;;;16.26;91.03;100741.00;5093545;28;20027;-52
2022/06/25 00:52:56;;;;;;;10.48;6.03;;;;;;;16.25;91.20;100739.25;5093287;28;20464;-52
2022/06/25 00:55:25;;;;;;;19.38;6.60;;;;;;;16.23;91.58;100735.78;5093498;28;20364;-50
2022/06/25 00:57:51;;;;;;;11.43;5.63;;;;;;;16.20;91.13;100731.44;5093102;28;20555;-50
2022/06/25 01:00:17;;;;;;;10.85;6.03;;;;;;;16.19;91.38;100745.31;5093024;28;20118;-50
2022/06/25 01:02:44;;;;;;;11.65;6.60;;;;;;;16.16;91.83;100749.63;5093648;28;20099;-51
2022/06/25 01:05:11;;;;;;;10.68;6.20;;;;;;;16.15;92.22;100753.09;5092986;28;20071;-49
2022/06/25 01:07:38;;;;;;;17.05;7.03;;;;;;;16.09;92.04;100759.13;5092823;28;20391;-49
2022/06/25 01:10:08;;;;;;;15.13;6.80;;;;;;;16.07;92.36;100766.91;5093248;28;20035;-52
2022/06/25 01:12:35;;;;;;;12.23;6.65;;;;;;;16.03;92.65;100767.75;5092879;28;20028;-49
2022/06/25 01:15:08;;;;;;;14.90;6.47;;;;;;;16.04;92.45;100760.84;5093380;28;20016;-49
2022/06/25 01:17:36;;;;;;;15.02;6.93;;;;;;;16.01;92.44;100753.88;5093304;28;20024;-49
2022/06/25 01:20:04;;;;;;;13.48;7.00;;;;;;;15.99;92.58;100758.19;5092179;28;20452;-52
2022/06/25 01:22:30;;;;;;;11.88;6.47;;;;;;;15.97;92.85;100765.09;5093245;28;20039;-49
2022/06/25 01:24:55;;;;;;;13.80;7.35;;;;;;;15.94;93.08;100759.91;5092865;28;20020;-52
2022/06/25 01:27:21;;;;;;;11.93;8.10;;;;;;;15.90;93.01;100763.34;5092515;28;20027;-50
2022/06/25 01:29:46;;;;;;;12.82;7.50;;;;;;;15.90;93.04;100771.16;5093273;28;20020;-49
2022/06/25 01:32:11;;;;;;;16.50;7.75;;;;;;;15.88;93.10;100778.03;5092881;28;20478;-51
2022/06/25 01:34:37;;;;;;;13.93;7.25;;;;;;;15.82;93.12;100775.44;5092373;28;20047;-49
2022/06/25 01:37:02;;;;;;;17.20;7.53;;;;;;;15.80;92.85;100784.06;5092865;28;20028;-51
2022/06/25 01:39:28;;;;;;;12.68;6.90;;;;;;;15.78;93.57;100792.69;5092576;28;20028;-49
2022/06/25 01:41:53;;;;;;;20.45;8.05;;;;;;;15.76;92.94;100786.59;5091779;28;20106;-52
2022/06/25 01:44:18;;;;;;;14.80;7.28;;;;;;;15.74;93.64;100791.78;5092861;28;20032;-50
2022/06/25 01:46:43;;;;;;;16.20;7.85;;;;;;;15.74;94.11;100794.38;5092749;28;20036;-49
2022/06/25 01:49:09;;;;;;;16.30;7.53;;;;;;;15.70;94.01;100791.75;5092221;28;20086;-51
2022/06/25 01:51:34;;;;;;;13.75;7.35;;;;;;;15.72;93.38;100792.63;5092845;28;20032;-49
2022/06/25 01:53:59;;;;;;;13.70;8.02;;;;;;;15.69;93.02;100796.09;5092403;28;20028;-50
2022/06/25 01:56:25;;;;;;;14.40;7.40;;;;;;;15.72;93.19;100800.44;5092229;28;20036;-50
2022/06/25 01:58:50;;;;;;;12.63;8.38;;;;;;;15.72;93.44;100803.03;5092624;28;20399;-49
2022/06/25 02:01:15;;;;;;;12.32;7.25;;;;;;;15.70;92.71;100808.22;5092329;28;20460;-54
2022/06/25 02:03:41;;;;;;;15.27;7.78;;;;;;;15.70;92.66;100815.13;5092374;28;20016;-52
2022/06/25 02:06:06;;;;;;;15.75;7.40;;;;;;;15.67;92.56;100807.31;5092595;28;20365;-49
2022/06/25 02:08:34;;;;;;;15.35;8.18;;;;;;;15.67;92.31;100815.97;5092187;28;20024;-52
2022/06/25 02:11:01;;;;;;;14.25;7.90;;;;;;;15.64;92.38;100819.41;5092749;28;20075;-51
2022/06/25 02:13:27;;;;;;;16.23;7.88;;;;;;;15.61;92.39;100816.81;5092744;28;20116;-50
2022/06/25 02:15:53;;;;;;;14.38;7.50;;;;;;;15.59;92.58;100828.03;5092068;28;20100;-49
2022/06/25 02:18:19;;;;;;;22.13;8.43;;;;;;;15.56;93.10;100825.44;5092370;28;20032;-49
2022/06/25 02:20:45;;;;;;;16.30;7.65;;;;;;;15.54;92.94;100824.53;5092649;28;20377;-49
2022/06/25 02:23:14;;;;;;;18.10;7.82;;;;;;;15.48;92.84;100831.41;5091481;28;20071;-49
2022/06/25 02:25:39;;;;;;;16.77;8.27;;;;;;;15.48;92.54;100833.16;5092726;28;20035;-49
2022/06/25 02:28:04;;;;;;;15.82;7.85;;;;;;;15.48;92.42;100831.41;5092650;28;20016;-50
2022/06/25 02:30:30;;;;;;;15.15;7.43;;;;;;;15.48;92.56;100834.00;5091720;28;20016;-50
2022/06/25 02:32:55;;;;;;;16.55;7.80;;;;;;;15.45;92.72;100836.59;5092477;28;20052;-52
2022/06/25 02:35:21;;;;;;;21.50;7.88;;;;;;;15.42;92.59;100852.13;5092236;28;20459;-53
2022/06/25 02:37:46;;;;;;;20.45;8.45;;;;;;;15.42;92.25;100843.47;5091695;28;20028;-49
2022/06/25 02:40:12;;;;;;;13.38;7.32;;;;;;;15.40;92.51;100848.66;5092157;28;20036;-49
2022/06/25 02:42:38;;;;;;;17.25;8.50;;;;;;;15.37;92.27;100851.22;5092132;28;20084;-49
2022/06/25 02:45:05;;;;;;;16.05;8.10;;;;;;;15.35;92.33;100847.75;5091547;28;20467;-49
2022/06/25 02:47:30;;;;;;;15.32;8.48;;;;;;;15.33;92.66;100859.84;5092309;28;20028;-52
2022/06/25 02:49:56;;;;;;;18.98;8.63;;;;;;;15.30;92.68;100859.81;5091945;28;20020;-49
2022/06/25 02:52:21;;;;;;;28.27;9.70;;;;;;;15.30;93.04;100860.69;5091651;28;20043;-49
2022/06/25 02:54:46;;;;;;;17.20;8.65;;;;;;;15.29;93.08;100863.25;5095380;28;20076;-49
2022/06/25 02:59:56;;;;;;;16.95;8.32;;;;;;;15.26;93.54;100871.00;5095556;28;20047;-50
2022/06/25 03:02:21;;;;;;;18.63;9.38;;;;;;;15.22;93.47;100871.81;5095713;28;20036;-49
2022/06/25 03:04:46;;;;;;;18.30;9.07;;;;;;;15.19;93.58;100866.63;5095488;28;20028;-51
2022/06/25 03:07:12;;;;;;;19.05;8.30;;;;;;;15.19;93.69;100872.66;5095042;28;20063;-49
2022/06/25 03:09:37;;;;;;;15.77;8.93;;;;;;;15.14;93.99;100867.44;5095606;28;20028;-51
2022/06/25 03:12:03;;;;;;;17.38;9.05;;;;;;;15.14;93.87;100866.56;5094557;28;20451;-49
2022/06/25 03:14:28;;;;;;;19.48;10.05;;;;;;;15.11;94.11;100864.78;5095485;28;20474;-49
2022/06/25 03:16:53;;;;;;;16.95;10.57;;;;;;;15.12;94.67;100871.72;5095399;28;20055;-50
2022/06/25 03:19:19;;;;;;;17.42;11.43;;;;;;;15.09;94.30;100876.00;5094282;28;20046;-50
2022/06/25 03:21:45;;;;;;;25.65;11.55;;;;;;;15.07;94.54;100876.00;5095661;28;20077;-49
2022/06/25 03:24:11;;;;;;;21.27;11.10;;;;;;;15.07;94.64;100870.81;5095296;28;20081;-50
2022/06/25 03:26:36;;;;;;;24.60;12.23;;;;;;;15.06;95.46;100870.78;5094473;28;20302;-50
2022/06/25 03:29:03;;;;;;;18.58;10.95;;;;;;;15.02;95.03;100882.88;5095176;28;20111;-50
2022/06/25 03:31:28;;;;;;;23.08;11.82;;;;;;;15.01;95.05;100878.50;5095189;28;20627;-51
2022/06/25 03:33:54;;;;;;;22.95;11.95;;;;;;;15.01;95.12;100878.50;5094401;28;20463;-49
2022/06/25 03:36:19;;;;;;;23.23;11.82;;;;;;;15.03;95.28;100888.91;5094855;28;20027;-50
2022/06/25 03:38:45;;;;;;;21.45;10.77;;;;;;;15.03;94.71;100892.41;5095021;28;20020;-50
2022/06/25 03:43:54;;;;;;;19.80;10.68;;;;;;;15.05;94.92;100885.47;5095469;28;20062;-49
2022/06/25 03:46:19;;;;;;;21.17;11.65;;;;;;;15.07;95.02;100883.78;5094266;28;20055;-51
2022/06/25 03:48:45;;;;;;;22.98;11.13;;;;;;;15.11;95.03;100875.19;5094455;28;20032;-49
2022/06/25 03:51:10;;;;;;;20.67;10.88;;;;;;;15.16;95.32;100890.81;5094746;28;20476;-50
2022/06/25 03:53:35;;;;;;;22.13;9.95;;;;;;;15.23;94.83;100886.56;5094822;28;20020;-51
2022/06/25 03:56:00;;;;;;;20.48;10.50;;;;;;;15.31;94.41;100890.09;5093996;28;20448;-51
2022/06/25 03:58:26;;;;;;;19.30;10.38;;;;;;;15.38;94.34;100884.13;5094498;28;20044;-50
2022/06/25 04:00:51;;;;;;;21.20;10.25;;;;;;;15.46;93.92;100892.00;5094418;28;20081;-50
2022/06/25 04:03:17;;;;;;;19.90;10.65;;;;;;;15.52;93.27;100893.78;5093643;28;20450;-49
2022/06/25 04:05:42;;;;;;;22.30;10.32;;;;;;;15.59;93.15;100890.38;5093557;28;20050;-50
2022/06/25 04:08:07;;;;;;;21.33;10.15;;;;;;;15.64;92.86;100891.31;5093703;28;20031;-50
2022/06/25 04:10:33;;;;;;;17.30;8.77;;;;;;;15.68;92.59;100893.06;5094500;28;20099;-50
2022/06/25 04:12:58;;;;;;;18.77;10.43;;;;;;;15.70;92.33;100891.38;5094340;28;20024;-49
2022/06/25 04:15:23;;;;;;;17.58;9.10;;;;;;;15.71;92.84;100890.53;5093654;28;20036;-51
2022/06/25 04:17:48;;;;;;;17.60;9.18;;;;;;;15.71;92.56;100898.31;5094275;28;20394;-50
2022/06/25 04:20:14;;;;;;;14.57;9.77;;;;;;;15.73;92.71;100901.78;5094268;28;20099;-51
2022/06/25 04:22:39;;;;;;;15.55;9.85;;;;;;;15.75;92.41;100897.47;5093559;28;20391;-49
2022/06/25 04:25:05;;;;;;;16.20;9.20;;;;;;;15.79;92.51;100888.84;5094070;28;20024;-50
2022/06/25 04:30:14;;;;;;;22.13;9.00;;;;;;;15.89;91.75;100899.34;5093602;28;20123;-49
2022/06/25 04:32:39;;;;;;;21.88;8.63;;;;;;;15.95;91.04;100896.81;5094324;28;20058;-49
2022/06/25 04:35:05;;;;;;;14.95;8.82;;;;;;;16.01;91.31;100901.16;5093780;28;20028;-49
2022/06/25 04:37:31;;;;;;;21.83;10.18;;;;;;;16.04;91.31;100907.28;5093521;28;20067;-52
2022/06/25 04:39:56;;;;;;;16.63;9.07;;;;;;;16.10;91.14;100911.63;5093737;28;20596;-49
2022/06/25 04:42:21;;;;;;;18.88;8.75;;;;;;;16.15;90.71;100909.09;5093640;28;20020;-49
2022/06/25 04:44:46;;;;;;;14.60;8.57;;;;;;;16.24;90.61;100920.44;5093322;28;20028;-49
2022/06/25 04:47:12;;;;;;;18.45;9.13;;;;;;;16.30;90.47;100919.59;5093664;28;20031;-52
2022/06/25 04:49:37;;;;;;;19.23;8.90;;;;;;;16.36;89.60;100922.25;5093694;28;20387;-52
2022/06/25 04:52:02;;;;;;;12.70;7.70;;;;;;;16.41;89.70;100923.16;5093114;28;20034;-51
2022/06/25 04:54:28;;;;;;;13.27;7.50;;;;;;;16.46;89.49;100920.56;5093512;28;20473;-49
2022/06/25 04:56:53;;;;;;;17.10;8.02;;;;;;;16.52;88.99;100927.56;5093440;28;20016;-50
2022/06/25 04:59:18;;;;;;;20.45;8.35;;;;;;;16.56;88.54;100926.72;5092558;28;20044;-50
2022/06/25 05:01:44;;;;;;;16.10;7.63;;;;;;;16.63;88.99;100928.50;5093468;28;20451;-50
2022/06/25 05:04:10;;;;;;;14.93;8.05;;;;;;;16.67;88.26;100925.03;5093258;28;20032;-49
2022/06/25 05:06:35;;;;;;;22.40;8.88;;;;;;;16.71;88.60;100929.41;5092936;28;20047;-51
2022/06/25 05:09:00;;;;;;;16.88;8.00;;;;;;;16.76;88.93;100940.72;5093178;28;20039;-52
2022/06/25 05:11:26;;;;;;;17.70;7.82;;;;;;;16.79;88.00;100930.31;5092504;28;20031;-53
2022/06/25 05:13:51;;;;;;;16.88;7.43;;;;;;;16.81;87.56;100942.47;5093256;28;20028;-50
2022/06/25 05:16:17;;;;;;;21.25;7.55;;;;;;;16.80;87.64;100941.59;5092766;28;20020;-50
2022/06/25 05:18:44;;;;;;;17.45;8.05;;;;;;;16.78;87.28;100932.91;5092465;28;20073;-50
2022/06/25 05:21:09;;;;;;;17.77;8.00;;;;;;;16.76;87.49;100943.31;5093144;28;20066;-50
2022/06/25 05:23:35;;;;;;;16.52;7.30;;;;;;;16.76;87.36;100948.50;5093323;28;20032;-49
2022/06/25 05:26:01;;;;;;;13.75;7.15;;;;;;;16.76;87.83;100953.72;5092221;28;20160;-49
2022/06/25 05:28:26;;;;;;;16.50;7.35;;;;;;;16.77;87.16;100950.25;5093058;28;20052;-51
2022/06/25 05:30:51;;;;;;;16.00;8.02;;;;;;;16.82;86.88;100952.00;5092905;28;20109;-50
2022/06/25 05:33:17;;;;;;;16.05;7.13;;;;;;;16.88;87.06;100944.25;5092491;28;20020;-49
2022/06/25 05:35:42;;;;;;;13.27;7.75;;;;;;;16.99;86.88;100953.03;5092998;28;20044;-47
2022/06/25 05:38:08;;;;;;;18.40;7.15;;;;;;;17.11;86.04;100937.44;5092448;28;20027;-50
2022/06/25 05:40:34;;;;;;;16.15;7.93;;;;;;;17.20;84.61;100946.16;5092430;28;20028;-51
2022/06/25 05:43:00;;;;;;;11.00;7.30;;;;;;;17.31;84.39;100952.25;5092779;28;20020;-47
2022/06/25 05:45:25;;;;;;;19.42;7.60;;;;;;;17.40;83.65;100957.53;5092423;28;20028;-50
2022/06/25 05:47:50;;;;;;;20.20;7.28;;;;;;;17.44;83.69;100956.66;5092608;28;20368;-51
2022/06/25 05:50:16;;;;;;;20.70;7.20;;;;;;;17.44;83.81;100966.19;5092621;28;20483;-49
2022/06/25 05:52:41;;;;;;;15.70;6.95;;;;;;;17.45;83.25;100970.53;5092667;28;20092;-50
2022/06/25 05:55:07;;;;;;;11.55;6.53;;;;;;;17.40;82.40;100970.53;5092056;28;20039;-48
2022/06/25 05:57:32;;;;;;;15.93;7.22;;;;;;;17.39;82.74;100979.22;5092393;28;20016;-48
2022/06/25 05:59:58;;;;;;;19.75;7.03;;;;;;;17.39;82.78;100979.22;5092649;28;20020;-48
2022/06/25 06:02:26;;;;;;;16.13;6.75;;;;;;;17.44;82.76;100979.22;5092355;28;20450;-48
2022/06/25 06:04:51;;;;;;;18.10;6.85;;;;;;;17.48;82.64;100980.09;5092887;28;20031;-51
2022/06/25 06:07:17;;;;;;;11.95;6.03;;;;;;;17.55;82.80;100979.28;5092257;28;20020;-49
2022/06/25 06:09:42;;;;;;;16.90;7.38;;;;;;;17.61;82.38;100990.56;5092189;28;20467;-50
2022/06/25 06:12:07;;;;;;;14.75;6.32;;;;;;;17.70;81.96;100983.63;5092395;28;20028;-51
2022/06/25 06:14:33;;;;;;;17.85;6.63;;;;;;;17.83;82.12;100989.75;5092259;28;20032;-51
2022/06/25 06:16:58;;;;;;;15.70;6.55;;;;;;;17.95;81.38;100989.81;5092112;28;20036;-50
2022/06/25 06:19:23;;;;;;;19.17;7.85;;;;;;;18.01;79.90;100995.03;5092481;28;20036;-50
2022/06/25 06:21:49;;;;;;;13.63;6.60;;;;;;;18.09;79.61;101002.88;5091990;28;20471;-50
2022/06/25 06:24:14;;;;;;;13.65;7.15;;;;;;;18.14;79.13;100995.91;5092273;28;20161;-51
2022/06/25 06:26:39;;;;;;;18.65;7.80;;;;;;;18.25;79.29;100999.38;5092474;28;20418;-50
2022/06/25 06:29:04;;;;;;;16.45;7.38;;;;;;;18.27;78.19;100996.78;5093348;28;20024;-52
2022/06/25 06:31:30;;;;;;;19.10;7.00;;;;;;;18.30;78.05;101002.00;5096522;28;20035;-50
2022/06/25 06:33:56;;;;;;;13.43;7.38;;;;;;;18.32;78.04;101005.50;5096252;28;20024;-52
2022/06/25 06:36:21;;;;;;;17.00;7.25;;;;;;;18.34;78.24;101008.09;5095549;28;20383;-52
2022/06/25 06:38:46;;;;;;;12.95;7.28;;;;;;;18.37;77.44;101013.31;5096253;28;20027;-51
2022/06/25 06:41:16;;;;;;;18.92;8.07;;;;;;;18.43;78.34;101008.94;5095675;28;20035;-51
2022/06/25 06:43:42;;;;;;;19.85;7.25;;;;;;;18.58;78.58;101012.44;5095659;28;20024;-52
2022/06/25 06:46:07;;;;;;;18.33;7.05;;;;;;;18.52;76.46;101002.84;5096053;28;20406;-47
2022/06/25 06:48:32;;;;;;;16.55;7.55;;;;;;;18.44;77.71;101009.84;5096150;28;20024;-49
2022/06/25 06:50:58;;;;;;;15.20;7.18;;;;;;;18.43;78.86;101018.53;5095414;28;20394;-47
2022/06/25 06:53:23;;;;;;;18.55;7.40;;;;;;;18.39;78.60;101004.59;5095968;28;20028;-49
2022/06/25 06:55:48;;;;;;;21.17;7.80;;;;;;;18.31;78.94;101008.97;5095721;28;20019;-47
2022/06/25 06:58:14;;;;;;;16.50;7.20;;;;;;;18.22;78.52;101008.97;5094893;28;20109;-49
2022/06/25 07:00:39;;;;;;;19.02;7.65;;;;;;;18.14;78.34;101008.06;5096041;28;20581;-48
2022/06/25 07:03:05;;;;;;;18.00;7.35;;;;;;;18.15;79.85;101002.00;5095398;28;20024;-52
2022/06/25 07:05:30;;;;;;;17.23;7.18;;;;;;;18.18;78.97;101012.41;5095263;28;20028;-50
2022/06/25 07:07:55;;;;;;;12.05;6.53;;;;;;;18.28;80.24;101008.94;5095627;28;20081;-51
2022/06/25 07:10:21;;;;;;;18.63;7.35;;;;;;;18.39;79.22;101012.44;5095312;28;20032;-49
2022/06/25 07:12:47;;;;;;;16.58;6.90;;;;;;;18.54;80.20;101008.06;5095032;28;20531;-49
2022/06/25 07:15:13;;;;;;;16.40;6.55;;;;;;;18.65;78.86;101011.53;5095468;28;20114;-49
2022/06/25 07:17:38;;;;;;;14.25;7.00;;;;;;;18.76;78.26;101017.63;5095491;28;20012;-52
2022/06/25 07:20:04;;;;;;;16.33;7.03;;;;;;;18.88;77.77;101013.25;5094841;28;20116;-49
2022/06/25 07:22:29;;;;;;;16.20;6.60;;;;;;;18.99;77.26;101014.16;5095332;28;20027;-52
2022/06/25 07:24:55;;;;;;;16.75;6.47;;;;;;;19.01;76.42;101022.81;5095125;28;20038;-52
2022/06/25 07:27:20;;;;;;;15.82;6.22;;;;;;;19.12;76.36;101008.88;5094498;28;20032;-52
2022/06/25 07:29:45;;;;;;;16.85;6.45;;;;;;;19.15;75.17;101014.09;5095230;28;20039;-51
2022/06/25 07:32:11;;;;;;;16.23;5.80;;;;;;;19.23;75.95;101009.72;5094489;28;20533;-49
2022/06/25 07:34:36;;;;;;;15.35;5.88;;;;;;;19.28;75.20;101021.00;5095540;28;20036;-50
2022/06/25 07:37:02;;;;;;;10.30;5.32;;;;;;;19.24;73.74;101019.28;5095073;28;20024;-49
2022/06/25 07:39:28;;;;;;;14.27;5.85;;;;;;;19.26;75.53;101022.75;5094315;28;20100;-52
2022/06/25 07:41:53;;;;;;;14.13;5.93;;;;;;;19.26;75.59;101017.53;5094987;28;20024;-51
2022/06/25 07:44:19;;;;;;;18.35;6.43;;;;;;;19.39;74.88;101028.78;5094466;28;20024;-52
2022/06/25 07:46:44;;;;;;;15.32;6.30;;;;;;;19.51;73.04;101027.88;5094464;28;20028;-49
2022/06/25 07:49:10;;;;;;;17.13;6.07;;;;;;;19.77;73.06;101025.13;5094698;28;20032;-53
2022/06/25 07:54:20;;;;;;;13.63;6.43;;;;;;;20.33;71.03;101035.25;5094373;28;20035;-54
2022/06/25 07:56:45;;;;;;;12.80;6.28;;;;;;;20.48;69.72;101029.03;5095044;28;20028;-54
2022/06/25 07:59:10;;;;;;;13.95;5.85;;;;;;;20.56;69.80;101035.06;5093981;28;20062;-54
2022/06/25 08:01:35;;;;;;;17.90;6.30;;;;;;;20.43;69.51;101020.34;5094107;28;20020;-54
2022/06/25 08:04:01;;;;;;;20.70;6.70;;;;;;;20.28;70.95;101022.19;5094438;28;20035;-53
2022/06/25 08:06:26;;;;;;;12.95;6.47;;;;;;;20.05;71.37;101031.09;5094270;28;20024;-55
2022/06/25 08:08:52;;;;;;;12.02;5.35;;;;;;;19.88;72.77;101038.19;5093908;28;20023;-55
2022/06/25 08:11:18;;;;;;;11.90;5.38;;;;;;;19.78;74.07;101036.47;5094124;28;20414;-54
2022/06/25 08:13:43;;;;;;;16.50;6.68;;;;;;;19.82;74.24;101038.19;5094272;28;20028;-55
2022/06/25 08:16:09;;;;;;;12.55;5.88;;;;;;;19.97;73.85;101032.88;5093503;28;20459;-54
2022/06/25 08:18:35;;;;;;;17.00;5.97;;;;;;;20.11;73.45;101031.94;5094381;28;20064;-54
2022/06/25 08:21:01;;;;;;;15.45;7.15;;;;;;;20.23;72.32;101034.44;5094037;28;20072;-54
2022/06/25 08:23:26;;;;;;;12.98;6.53;;;;;;;20.27;72.37;101033.56;5093525;28;20038;-54
2022/06/25 08:25:51;;;;;;;12.02;5.88;;;;;;;20.29;72.46;101038.78;5094186;28;20065;-54
2022/06/25 08:28:18;;;;;;;13.00;5.38;;;;;;;20.27;72.33;101038.81;5093888;28;20031;-54
2022/06/25 08:30:45;;;;;;;13.55;5.57;;;;;;;20.19;71.87;101038.88;5093701;28;20024;-54
2022/06/25 08:33:11;;;;;;;9.05;4.38;;;;;;;19.98;70.86;101052.09;5093892;28;20035;-54
2022/06/25 08:35:37;;;;;;;12.02;5.07;;;;;;;19.73;72.18;101046.97;5093344;28;20024;-53
2022/06/25 08:38:02;;;;;;;9.82;4.57;;;;;;;19.52;73.54;101042.69;5093694;28;20020;-54
2022/06/25 08:40:28;;;;;;;14.95;5.18;;;;;;;19.40;74.46;101046.22;5093520;28;20024;-54
2022/06/25 08:42:53;;;;;;;13.43;4.75;;;;;;;19.26;75.13;101048.88;5093493;28;20024;-54
2022/06/25 08:45:19;;;;;;;12.35;5.00;;;;;;;19.18;76.28;101046.28;5093718;28;20023;-54
2022/06/25 08:47:47;;;;;;;16.20;5.30;;;;;;;19.11;76.93;101038.47;5093760;28;20028;-53
2022/06/25 08:50:14;;;;;;;10.88;4.78;;;;;;;19.14;77.11;101046.31;5092939;28;20024;-54
2022/06/25 08:52:43;;;;;;;10.38;5.22;;;;;;;19.16;77.26;101047.16;5093211;28;20020;-54
2022/06/25 08:55:11;;;;;;;12.05;5.05;;;;;;;19.37;77.91;101047.09;5093361;28;20031;-54
2022/06/25 08:57:38;;;;;;;13.80;5.55;;;;;;;19.48;74.15;101043.56;5092782;28;20521;-49
2022/06/25 09:00:04;;;;;;;11.15;5.63;;;;;;;19.52;75.31;101051.41;5093495;28;20032;-52
2022/06/25 09:02:29;;;;;;;10.95;5.30;;;;;;;19.77;74.91;101046.06;5093144;28;20081;-53
2022/06/25 09:04:55;;;;;;;16.35;5.72;;;;;;;19.86;75.09;101050.41;5092906;28;20021;-55
2022/06/25 09:07:21;;;;;;;9.10;5.20;;;;;;;20.06;74.83;101045.94;5093040;28;20467;-55
2022/06/25 09:09:49;;;;;;;14.30;5.78;;;;;;;20.29;73.19;101047.50;5093273;28;20039;-55
2022/06/25 09:12:16;;;;;;;13.75;6.15;;;;;;;20.60;72.56;101054.25;5093058;28;20047;-53
2022/06/25 09:14:41;;;;;;;10.77;4.80;;;;;;;20.76;69.15;101055.88;5093529;28;20072;-53
2022/06/25 09:17:12;;;;;;;11.30;5.00;;;;;;;20.80;68.36;101047.09;5092907;28;20099;-53
2022/06/25 09:19:41;;;;;;;10.77;4.82;;;;;;;20.87;68.23;101051.38;5092652;28;20028;-52
2022/06/25 09:22:10;;;;;;;13.10;4.50;;;;;;;21.07;67.70;101049.44;5092982;28;20531;-53
2022/06/25 09:24:51;;;;;;;10.27;5.00;;;;;;;21.17;68.21;101051.09;5093093;28;20032;-53
2022/06/25 09:27:39;;;;;;;11.05;4.72;;;;;;;21.12;67.50;101042.41;5092910;28;20119;-55
2022/06/25 09:30:08;;;;;;;;;;;;;;;21.17;67.78;101045.84;5093110;28;20024;-49
2022/06/25 09:32:47;;;;;;;11.82;4.50;;;;;;;20.84;69.91;101047.94;5092796;28;19919;-53
2022/06/25 09:35:14;;;;;;;20.38;4.55;;;;;;;20.65;69.86;101052.44;5092697;28;20455;-48
2022/06/25 09:37:40;;;;;;;14.83;5.33;;;;;;;20.54;70.34;101057.75;5092940;28;20078;-51
2022/06/25 09:40:07;;;;;;;11.82;4.70;;;;;;;20.55;70.80;101049.91;5092199;28;20480;-48
2022/06/25 09:42:34;;;;;;;9.47;4.43;;;;;;;20.78;70.96;101042.75;5092756;28;20495;-47
2022/06/25 09:45:11;;;;;;;9.48;5.32;;;;;;;21.25;69.28;101043.97;5092413;28;20301;-49
2022/06/25 09:47:43;;;;;;;9.98;5.00;;;;;;;21.55;66.75;101047.19;5092521;28;20031;-49
2022/06/25 09:50:14;;;;;;;13.05;4.43;;;;;;;22.15;66.91;101042.81;5093048;28;20043;-52
2022/06/25 09:52:49;;;;;;;11.27;4.38;;;;;;;22.61;65.18;101047.34;5092656;28;20036;-49
2022/06/25 09:55:14;;;;;;;10.30;3.80;;;;;;;23.07;64.77;101055.28;5092480;28;20028;-50
2022/06/25 09:57:40;;;;;;;9.02;3.67;;;;;;;23.28;60.61;101047.03;5092602;28;20069;-49
2022/06/25 10:00:07;;;;;;;9.40;4.00;;;;;;;22.97;59.67;101063.38;5092255;28;20024;-50
2022/06/25 10:02:32;;;;;;;11.43;4.00;;;;;;;22.84;61.77;101053.97;5092738;28;20032;-49
2022/06/25 10:05:01;;;;;;;12.70;3.78;;;;;;;22.70;60.95;101051.59;5095992;28;20169;-53
2022/06/25 10:10:17;;;;;;;6.85;3.15;;;;;;;22.85;61.12;101055.69;5096957;28;20541;-52
2022/06/25 10:12:43;;;;;;;8.32;2.95;;;;;;;22.95;59.98;101049.38;5096747;28;20098;-52
2022/06/25 10:15:09;;;;;;;11.27;3.55;;;;;;;23.04;58.97;101058.84;5096190;28;20020;-53
2022/06/25 10:17:34;;;;;;;6.78;2.78;;;;;;;22.97;58.38;101047.59;5096924;28;20036;-50
2022/06/25 10:20:00;;;;;;;13.73;2.92;;;;;;;22.75;57.03;101047.13;5096215;28;20036;-50
2022/06/25 10:22:28;;;;;;;6.72;2.53;;;;;;;22.76;58.99;101056.75;5095906;28;20020;-50
2022/06/25 10:24:55;;;;;;;7.78;2.70;;;;;;;23.11;58.08;101046.44;5096782;28;20077;-53
2022/06/25 10:27:21;;;;;;;7.95;2.85;;;;;;;23.98;56.91;101051.69;5096287;28;20040;-53
2022/06/25 10:29:57;;;;;;;8.07;2.90;;;;;;;24.93;55.17;101044.97;5095943;28;20035;-54
2022/06/25 10:32:23;;;;;;;8.40;3.08;;;;;;;25.18;51.49;101040.75;5096232;28;20614;-54
2022/06/25 10:34:53;;;;;;;7.15;3.15;;;;;;;25.27;51.94;101041.38;5096113;28;20479;-53
2022/06/25 10:37:19;;;;;;;9.00;2.70;;;;;;;25.27;50.80;101046.66;5095660;28;20114;-53
2022/06/25 10:39:48;;;;;;;11.82;2.92;;;;;;;25.14;52.12;101048.78;5096259;28;20028;-53
2022/06/25 10:45:03;;;;;;;9.35;2.55;;;;;;;25.34;49.53;101046.47;5096083;28;20031;-54
2022/06/25 10:47:54;;;;;;;7.47;2.42;;;;;;;25.84;51.20;101038.84;5095654;28;20032;-53
2022/06/25 10:50:22;;;;;;;6.60;2.30;;;;;;;26.56;47.94;101043.56;5095355;28;20472;-54
2022/06/25 10:53:06;;;;;;;7.80;2.28;;;;;;;26.91;47.44;101051.22;5096223;28;20105;-54
2022/06/25 10:55:46;;;;;;;3.42;1.88;;;;;;;27.09;46.76;101044.41;5095595;28;20036;-54
2022/06/25 10:58:42;;;;;;;3.38;1.80;;;;;;;27.33;45.25;101047.06;5094722;28;20040;-54
2022/06/25 11:01:21;;;;;;;6.80;2.50;;;;;;;26.83;46.93;101037.41;5089222;28;20032;-53
2022/06/25 11:03:52;;;;;;;7.68;2.20;;;;;;;27.08;47.46;101032.09;5094107;28;20031;-54
2022/06/25 11:06:24;;;;;;;5.30;1.88;;;;;;;27.95;44.45;101027.00;5094192;28;20034;-54
2022/06/25 11:08:52;;;;;;;5.15;1.70;;;;;;;28.69;41.59;101037.25;5094419;28;20031;-55
2022/06/25 11:11:24;;;;;;;;;;;;;;;28.96;41.99;101029.00;5094398;28;20024;-54
2022/06/25 11:13:49;;;;;;;5.65;1.90;;;;;;;28.21;42.70;101031.31;5094242;28;20287;-54
2022/06/25 11:16:16;;;;;;;6.10;1.50;;;;;;;27.88;40.40;101036.16;5093802;28;20479;-54
2022/06/25 11:18:50;;;;;;;3.80;1.20;;;;;;;27.64;42.94;101027.38;5093778;28;20028;-54
2022/06/25 11:21:30;;;;;;;3.30;1.63;;;;;;;27.65;42.90;101027.31;5094035;28;20494;-53
2022/06/25 11:24:13;;;;;;;4.78;1.90;;;;;;;27.59;42.29;101031.09;5094018;28;20022;-54
2022/06/25 11:29:27;;;;;;;6.40;1.53;;;;;;;28.05;41.23;101035.50;5094285;28;20035;-54
2022/06/25 11:31:54;;;;;;;5.20;1.70;;;;;;;28.35;40.95;101029.84;5093764;28;20027;-53
2022/06/25 11:34:21;;;;;;;6.00;1.98;;;;;;;28.81;40.83;101030.56;5093796;28;20474;-54
2022/06/25 11:37:05;;;;;;;;;;;;;;;29.60;40.94;101034.94;5094401;28;20105;-55
2022/06/25 11:39:32;;;;;;;4.40;1.60;;;;;;;29.70;38.08;101040.69;5093315;28;20014;-55